createdAt,value
2023-01-07T00:01:02.517Z,6.07
2023-01-07T00:03:31.353Z,6.70
2023-01-07T00:06:00.397Z,5.30
2023-01-07T00:08:30.701Z,4.72
2023-01-07T00:10:58.854Z,6.07
2023-01-07T00:13:26.707Z,4.57
2023-01-07T00:16:00.777Z,6.20
2023-01-07T00:18:28.760Z,4.97
2023-01-07T00:20:57.726Z,3.95
2023-01-07T00:23:26.030Z,4.80
2023-01-07T00:26:00.207Z,4.93
2023-01-07T00:28:28.096Z,5.07
2023-01-07T00:31:01.818Z,3.95
2023-01-07T00:33:29.878Z,4.93
2023-01-07T00:36:01.428Z,4.63
2023-01-07T00:38:29.559Z,5.18
2023-01-07T00:40:57.784Z,5.32
2023-01-07T00:43:25.604Z,4.80
2023-01-07T00:45:53.528Z,4.20
2023-01-07T00:48:24.014Z,3.78
2023-01-07T00:50:53.072Z,3.97
2023-01-07T00:53:21.263Z,3.35
2023-01-07T00:55:50.326Z,2.88
2023-01-07T00:58:21.754Z,4.75
2023-01-07T01:00:49.833Z,4.97
2023-01-07T01:03:18.130Z,4.97
2023-01-07T01:05:47.374Z,5.65
2023-01-07T01:08:15.477Z,4.35
2023-01-07T01:10:43.266Z,4.65
2023-01-07T01:13:13.771Z,3.60
2023-01-07T01:15:43.875Z,5.03
2023-01-07T01:18:12.147Z,5.50
2023-01-07T01:20:40.116Z,3.83
2023-01-07T01:23:10.228Z,3.45
2023-01-07T01:25:38.047Z,4.53
2023-01-07T01:28:06.307Z,2.40
2023-01-07T01:30:34.462Z,3.72
2023-01-07T01:33:02.262Z,4.70
2023-01-07T01:35:30.414Z,3.67
2023-01-07T01:38:01.774Z,3.22
2023-01-07T01:40:31.690Z,2.80
2023-01-07T01:42:59.519Z,3.97
2023-01-07T01:45:28.176Z,5.10
2023-01-07T01:48:00.543Z,3.28
2023-01-07T01:50:33.271Z,4.80
2023-01-07T01:53:06.129Z,3.92
2023-01-07T01:55:38.192Z,6.15
2023-01-07T01:58:10.804Z,5.00
2023-01-07T02:00:39.168Z,2.30
2023-01-07T02:03:09.652Z,5.35
2023-01-07T02:05:41.237Z,4.13
2023-01-07T02:08:10.043Z,3.63
2023-01-07T02:10:40.001Z,3.75
2023-01-07T02:13:23.054Z,3.80
2023-01-07T02:15:57.419Z,5.22
2023-01-07T02:18:38.747Z,4.00
2023-01-07T02:21:23.707Z,5.38
2023-01-07T02:24:31.631Z,3.80
2023-01-07T02:27:21.104Z,5.97
2023-01-07T02:30:11.496Z,4.95
2023-01-07T02:33:01.549Z,4.15
2023-01-07T02:35:45.290Z,6.25
2023-01-07T02:38:25.292Z,5.00
2023-01-07T02:41:01.702Z,4.47
2023-01-07T02:43:38.963Z,4.85
2023-01-07T02:46:13.403Z,4.00
2023-01-07T02:48:43.204Z,4.35
2023-01-07T02:51:11.085Z,5.45
2023-01-07T02:53:41.348Z,5.68
2023-01-07T02:56:25.752Z,4.47
2023-01-07T02:59:11.690Z,4.97
2023-01-07T03:01:53.736Z,5.05
2023-01-07T03:07:55.539Z,3.75
2023-01-07T03:10:30.382Z,5.20
2023-01-07T03:13:05.362Z,5.13
2023-01-07T03:15:39.707Z,5.57
2023-01-07T03:18:12.591Z,5.60
2023-01-07T03:20:44.619Z,4.13
2023-01-07T03:23:16.705Z,5.45
2023-01-07T03:25:47.509Z,6.30
2023-01-07T03:28:20.294Z,4.32
2023-01-07T03:30:50.484Z,4.50
2023-01-07T03:33:25.740Z,5.07
2023-01-07T03:35:57.348Z,5.78
2023-01-07T03:38:27.851Z,4.43
2023-01-07T03:40:56.216Z,4.72
2023-01-07T03:43:23.458Z,5.03
2023-01-07T03:45:54.384Z,4.30
2023-01-07T03:48:22.254Z,4.40
2023-01-07T03:50:50.530Z,4.93
2023-01-07T03:53:19.675Z,4.10
2023-01-07T03:55:47.469Z,4.90
2023-01-07T03:58:15.822Z,4.30
2023-01-07T04:00:46.814Z,4.93
2023-01-07T04:03:14.652Z,5.53
2023-01-07T04:05:42.890Z,5.80
2023-01-07T04:08:10.686Z,4.50
2023-01-07T04:10:39.919Z,5.05
2023-01-07T04:13:08.153Z,5.25
2023-01-07T04:15:36.013Z,4.72
2023-01-07T04:18:05.777Z,4.95
2023-01-07T04:20:34.006Z,4.78
2023-01-07T04:23:01.810Z,5.55
2023-01-07T04:25:29.634Z,6.25
2023-01-07T04:27:59.332Z,5.30
2023-01-07T04:30:27.519Z,6.20
2023-01-07T04:32:55.415Z,6.70
2023-01-07T04:35:23.692Z,5.70
2023-01-07T04:37:51.770Z,5.80
2023-01-07T04:40:19.577Z,5.72
2023-01-07T04:42:47.626Z,5.05
2023-01-07T04:45:16.866Z,5.78
2023-01-07T04:47:44.814Z,4.60
2023-01-07T04:50:13.027Z,4.43
2023-01-07T04:52:40.853Z,4.95
2023-01-07T04:55:11.006Z,4.93
2023-01-07T04:57:39.208Z,5.88
2023-01-07T05:00:08.725Z,6.18
2023-01-07T05:02:38.212Z,5.25
2023-01-07T05:05:07.205Z,5.75
2023-01-07T05:07:35.100Z,6.00
2023-01-07T05:10:02.896Z,7.20
2023-01-07T05:12:31.151Z,7.45
2023-01-07T05:14:58.958Z,7.43
2023-01-07T05:17:26.785Z,5.72
2023-01-07T05:19:56.032Z,5.22
2023-01-07T05:22:24.074Z,3.10
2023-01-07T05:24:52.303Z,8.20
2023-01-07T05:27:20.592Z,6.07
2023-01-07T05:29:48.425Z,6.38
2023-01-07T05:32:16.250Z,7.47
2023-01-07T05:34:44.480Z,8.13
2023-01-07T05:37:13.684Z,8.93
2023-01-07T05:39:41.477Z,7.07
2023-01-07T05:42:09.797Z,9.00
2023-01-07T05:44:37.577Z,7.88
2023-01-07T05:47:05.431Z,8.68
2023-01-07T05:49:33.313Z,7.15
2023-01-07T05:52:01.160Z,8.75
2023-01-07T05:54:30.377Z,7.45
2023-01-07T05:56:58.599Z,8.85
2023-01-07T05:59:26.436Z,13.02
2023-01-07T06:01:54.241Z,5.90
2023-01-07T06:04:22.352Z,7.05
2023-01-07T06:06:50.205Z,5.63
2023-01-07T06:09:18.033Z,15.05
2023-01-07T06:11:47.563Z,8.82
2023-01-07T06:14:15.478Z,8.48
2023-01-07T06:16:43.321Z,5.45
2023-01-07T06:19:12.253Z,6.93
2023-01-07T06:21:40.151Z,6.20
2023-01-07T06:24:08.841Z,6.80
2023-01-07T06:26:37.288Z,7.57
2023-01-07T06:29:07.192Z,6.97
2023-01-07T06:31:34.980Z,8.05
2023-01-07T06:34:03.326Z,7.85
2023-01-07T06:36:31.128Z,9.70
2023-01-07T06:38:58.939Z,9.23
2023-01-07T06:41:27.185Z,9.85
2023-01-07T06:43:54.988Z,9.05
2023-01-07T06:46:24.426Z,9.15
2023-01-07T06:48:52.761Z,8.63
2023-01-07T06:51:20.586Z,7.97
2023-01-07T06:53:48.574Z,8.75
2023-01-07T06:56:16.426Z,9.55
2023-01-07T06:58:44.266Z,7.68
2023-01-07T07:01:12.648Z,8.48
2023-01-07T07:03:42.250Z,7.72
2023-01-07T07:06:13.267Z,9.40
2023-01-07T07:08:41.191Z,8.30
2023-01-07T07:11:09.707Z,8.20
2023-01-07T07:13:37.639Z,8.68
2023-01-07T07:16:06.121Z,7.10
2023-01-07T07:18:34.178Z,8.38
2023-01-07T07:21:03.578Z,9.82
2023-01-07T07:23:31.465Z,7.35
2023-01-07T07:25:59.788Z,8.98
2023-01-07T07:28:29.795Z,8.95
2023-01-07T07:30:58.320Z,7.20
2023-01-07T07:33:26.663Z,7.63
2023-01-07T07:35:56.426Z,9.88
2023-01-07T07:38:27.864Z,8.25
2023-01-07T07:40:57.366Z,9.38
2023-01-07T07:43:27.982Z,10.15
2023-01-07T07:45:55.909Z,13.77
2023-01-07T07:48:25.375Z,12.75
2023-01-07T07:50:53.768Z,9.48
2023-01-07T07:53:22.107Z,10.65
2023-01-07T07:55:54.130Z,8.80
2023-01-07T07:58:22.251Z,13.68
2023-01-07T08:00:50.106Z,7.20
2023-01-07T08:03:18.616Z,8.40
2023-01-07T08:05:46.949Z,7.63
2023-01-07T08:08:16.473Z,8.25
2023-01-07T08:10:45.314Z,9.05
2023-01-07T08:13:14.652Z,7.18
2023-01-07T08:15:42.929Z,6.53
2023-01-07T08:18:12.069Z,11.77
2023-01-07T08:20:44.080Z,8.55
2023-01-07T08:23:13.802Z,9.18
2023-01-07T08:25:41.853Z,10.70
2023-01-07T08:28:11.729Z,10.85
2023-01-07T08:30:41.525Z,11.52
2023-01-07T08:33:09.718Z,11.88
2023-01-07T08:35:37.740Z,6.28
2023-01-07T08:38:06.829Z,9.40
2023-01-07T08:40:35.277Z,11.88
2023-01-07T08:43:04.153Z,12.25
2023-01-07T08:45:32.948Z,13.38
2023-01-07T08:48:02.193Z,9.05
2023-01-07T08:50:33.071Z,9.77
2023-01-07T08:53:01.077Z,8.88
2023-01-07T08:55:29.102Z,8.63
2023-01-07T08:57:59.879Z,9.88
2023-01-07T09:00:28.294Z,9.13
2023-01-07T09:02:56.186Z,9.73
2023-01-07T09:05:26.134Z,7.35
2023-01-07T09:07:54.424Z,10.10
2023-01-07T09:10:22.990Z,9.40
2023-01-07T09:12:51.582Z,8.93
2023-01-07T09:15:19.556Z,10.02
2023-01-07T09:17:47.431Z,6.72
2023-01-07T09:20:15.623Z,14.18
2023-01-07T09:22:45.000Z,10.68
2023-01-07T09:25:12.871Z,9.38
2023-01-07T09:27:40.732Z,10.13
2023-01-07T09:30:10.181Z,11.65
2023-01-07T09:32:38.038Z,9.10
2023-01-07T09:35:06.734Z,15.02
2023-01-07T09:37:34.547Z,17.58
2023-01-07T09:40:03.912Z,16.08
2023-01-07T09:42:39.886Z,11.85
2023-01-07T09:45:17.360Z,10.63
2023-01-07T09:47:49.540Z,6.97
2023-01-07T09:50:25.578Z,9.27
2023-01-07T09:52:59.383Z,8.95
2023-01-07T09:55:34.600Z,8.70
2023-01-07T09:58:02.764Z,11.18
2023-01-07T10:00:33.857Z,7.72
2023-01-07T10:03:22.117Z,9.10
2023-01-07T10:06:01.702Z,10.25
2023-01-07T10:08:38.134Z,9.25
2023-01-07T10:11:19.718Z,9.65
2023-01-07T10:14:11.447Z,15.43
2023-01-07T10:16:46.561Z,11.57
2023-01-07T10:19:22.615Z,12.10
2023-01-07T10:21:56.045Z,11.40
2023-01-07T10:24:28.656Z,12.52
2023-01-07T10:27:02.704Z,13.20
2023-01-07T10:29:36.105Z,11.63
2023-01-07T10:32:09.368Z,10.82
2023-01-07T10:34:45.040Z,9.27
2023-01-07T10:37:29.224Z,9.95
2023-01-07T10:40:12.278Z,10.23
2023-01-07T10:42:50.781Z,9.63
2023-01-07T10:45:39.116Z,13.68
2023-01-07T10:48:31.186Z,11.73
2023-01-07T10:51:09.058Z,12.30
2023-01-07T10:53:50.267Z,12.32
2023-01-07T10:56:26.336Z,10.40
2023-01-07T10:58:55.574Z,11.93
2023-01-07T11:01:27.496Z,13.35
2023-01-07T11:03:57.976Z,12.23
2023-01-07T11:06:40.924Z,10.68
2023-01-07T11:09:11.931Z,11.13
2023-01-07T11:11:42.275Z,10.65
2023-01-07T11:14:20.557Z,13.40
2023-01-07T11:16:53.728Z,11.27
2023-01-07T11:19:24.435Z,9.25
2023-01-07T11:21:52.785Z,12.30
2023-01-07T11:24:31.480Z,10.88
2023-01-07T11:27:14.108Z,11.75
2023-01-07T11:29:46.197Z,17.85
2023-01-07T11:32:21.604Z,13.18
2023-01-07T11:34:58.898Z,10.57
2023-01-07T11:37:35.889Z,7.50
2023-01-07T11:40:20.061Z,8.52
2023-01-07T11:42:49.934Z,12.35
2023-01-07T11:45:21.662Z,11.20
2023-01-07T11:47:56.618Z,13.65
2023-01-07T11:50:27.914Z,7.35
2023-01-07T11:52:57.246Z,10.75
2023-01-07T11:55:25.185Z,11.65
2023-01-07T11:58:29.278Z,13.63
2023-01-07T12:00:47.334Z,8.38
2023-01-07T12:03:15.667Z,12.38
2023-01-07T12:05:57.157Z,13.82
2023-01-07T12:08:27.480Z,15.52
2023-01-07T12:10:57.910Z,11.48
2023-01-07T12:13:28.761Z,13.60
2023-01-07T12:16:01.823Z,11.38
2023-01-07T12:18:55.911Z,12.68
2023-01-07T12:21:49.029Z,12.32
2023-01-07T12:24:37.383Z,11.10
2023-01-07T12:27:15.446Z,10.88
2023-01-07T12:29:53.494Z,14.18
2023-01-07T12:32:35.237Z,11.60
2023-01-07T12:35:14.235Z,14.98
2023-01-07T12:37:47.938Z,9.82
2023-01-07T12:40:24.261Z,12.63
2023-01-07T12:42:58.350Z,10.80
2023-01-07T12:45:32.346Z,10.93
2023-01-07T12:48:05.894Z,9.00
2023-01-07T12:50:40.950Z,6.65
2023-01-07T12:53:16.776Z,7.82
2023-01-07T12:55:49.872Z,11.10
2023-01-07T12:58:24.040Z,10.25
2023-01-07T13:00:58.643Z,10.13
2023-01-07T13:03:40.584Z,10.73
2023-01-07T13:06:15.853Z,14.95
2023-01-07T13:08:51.460Z,14.55
2023-01-07T13:11:47.677Z,11.50
2023-01-07T13:14:23.417Z,9.85
2023-01-07T13:16:51.823Z,11.05
2023-01-07T13:19:22.882Z,10.85
2023-01-07T13:21:51.744Z,11.32
2023-01-07T13:24:55.143Z,8.68
2023-01-07T13:27:32.206Z,11.25
2023-01-07T13:30:16.394Z,12.90
2023-01-07T13:32:59.559Z,9.90
2023-01-07T13:35:43.074Z,8.57
2023-01-07T13:38:35.257Z,11.38
2023-01-07T13:41:20.069Z,11.02
2023-01-07T13:44:08.921Z,9.85
2023-01-07T13:46:40.840Z,6.55
2023-01-07T13:49:27.622Z,8.40
2023-01-07T13:51:58.246Z,10.00
2023-01-07T13:54:56.191Z,9.50
2023-01-07T13:57:44.929Z,8.68
2023-01-07T14:00:41.998Z,11.23
2023-01-07T14:03:36.138Z,10.35
2023-01-07T14:06:42.414Z,9.55
2023-01-07T14:09:33.935Z,10.18
2023-01-07T14:12:34.497Z,9.02
2023-01-07T14:15:36.651Z,12.90
2023-01-07T14:18:49.290Z,6.90
2023-01-07T14:21:27.493Z,10.40
2023-01-07T14:24:18.206Z,10.00
2023-01-07T14:26:58.806Z,9.05
2023-01-07T14:29:42.572Z,8.75
2023-01-07T14:32:31.316Z,10.88
2023-01-07T14:35:03.278Z,9.18
2023-01-07T14:37:38.902Z,8.00
2023-01-07T14:41:00.469Z,9.02
2023-01-07T14:43:50.221Z,9.57
2023-01-07T14:46:50.321Z,6.97
2023-01-07T14:49:51.653Z,6.95
2023-01-07T14:52:40.290Z,7.60
2023-01-07T14:55:34.698Z,12.05
2023-01-07T14:58:21.520Z,10.57
2023-01-07T15:01:28.790Z,9.77
2023-01-07T15:04:22.914Z,12.48
2023-01-07T15:06:52.870Z,10.98
2023-01-07T15:09:43.515Z,10.75
2023-01-07T15:12:38.886Z,11.93
2023-01-07T15:15:31.182Z,7.60
2023-01-07T15:18:01.094Z,12.02
2023-01-07T15:20:40.508Z,10.60
2023-01-07T15:23:13.501Z,17.08
2023-01-07T15:25:52.849Z,8.30
2023-01-07T15:28:32.101Z,10.32
2023-01-07T15:31:09.495Z,18.63
2023-01-07T15:33:59.035Z,7.22
2023-01-07T15:36:27.317Z,7.13
2023-01-07T15:38:57.354Z,10.90
2023-01-07T15:41:30.763Z,8.43
2023-01-07T15:44:00.374Z,10.75
2023-01-07T15:46:29.584Z,10.98
2023-01-07T15:49:24.210Z,9.68
2023-01-07T15:51:54.540Z,11.30
2023-01-07T15:54:25.023Z,9.20
2023-01-07T15:56:55.104Z,7.78
2023-01-07T15:59:28.203Z,8.45
2023-01-07T16:02:02.082Z,10.75
2023-01-07T16:04:34.684Z,9.30
2023-01-07T16:07:02.693Z,7.88
2023-01-07T16:09:32.252Z,11.40
2023-01-07T16:12:02.259Z,11.93
2023-01-07T16:14:37.129Z,10.10
2023-01-07T16:17:13.399Z,9.02
2023-01-07T16:19:43.604Z,8.15
2023-01-07T16:22:16.045Z,8.18
2023-01-07T16:24:48.983Z,10.65
2023-01-07T16:27:18.513Z,12.13
2023-01-07T16:29:53.316Z,10.23
2023-01-07T16:32:24.030Z,10.60
2023-01-07T16:35:07.311Z,15.63
2023-01-07T16:37:38.531Z,8.95
2023-01-07T16:40:18.991Z,13.57
2023-01-07T16:42:49.040Z,9.45
2023-01-07T16:45:29.200Z,9.50
2023-01-07T16:48:16.339Z,12.90
2023-01-07T16:50:47.236Z,11.23
2023-01-07T16:53:28.749Z,9.73
2023-01-07T16:56:15.621Z,18.42
2023-01-07T16:58:49.102Z,16.60
2023-01-07T17:01:20.384Z,29.05
2023-01-07T17:03:53.168Z,24.40
2023-01-07T17:06:25.650Z,25.30
2023-01-07T17:08:55.507Z,22.73
2023-01-07T17:11:29.156Z,20.85
2023-01-07T17:13:57.367Z,16.33
2023-01-07T17:16:28.526Z,14.88
2023-01-07T17:18:58.001Z,13.50
2023-01-07T17:21:40.667Z,11.70
2023-01-07T17:24:23.969Z,11.40
2023-01-07T17:26:52.527Z,10.20
2023-01-07T17:29:20.956Z,13.55
2023-01-07T17:31:49.032Z,11.70
2023-01-07T17:34:18.143Z,11.02
2023-01-07T17:36:47.418Z,11.70
2023-01-07T17:39:15.616Z,10.52
2023-01-07T17:42:00.768Z,11.93
2023-01-07T17:44:29.033Z,10.85
2023-01-07T17:46:56.823Z,12.63
2023-01-07T17:49:24.612Z,12.50
2023-01-07T17:51:54.922Z,12.38
2023-01-07T17:54:25.470Z,13.15
2023-01-07T17:56:54.013Z,10.23
2023-01-07T17:59:23.717Z,12.15
2023-01-07T18:01:54.790Z,9.60
2023-01-07T18:04:23.118Z,10.77
2023-01-07T18:06:51.364Z,12.00
2023-01-07T18:09:20.537Z,13.20
2023-01-07T18:12:06.394Z,12.45
2023-01-07T18:14:34.169Z,13.77
2023-01-07T18:17:02.166Z,13.15
2023-01-07T18:19:30.048Z,11.57
2023-01-07T18:21:58.111Z,11.82
2023-01-07T18:24:27.318Z,12.45
2023-01-07T18:26:56.628Z,12.10
2023-01-07T18:29:24.961Z,14.27
2023-01-07T18:31:52.892Z,13.00
2023-01-07T18:34:21.153Z,10.65
2023-01-07T18:36:48.994Z,11.45
2023-01-07T18:39:19.638Z,14.35
2023-01-07T18:41:50.739Z,15.38
2023-01-07T18:44:18.916Z,15.95
2023-01-07T18:46:46.719Z,14.60
2023-01-07T18:49:15.373Z,12.02
2023-01-07T18:51:43.393Z,14.02
2023-01-07T18:54:11.237Z,16.40
2023-01-07T18:56:39.532Z,13.55
2023-01-07T18:59:08.772Z,14.05
2023-01-07T19:01:36.701Z,14.00
2023-01-07T19:04:06.778Z,16.65
2023-01-07T19:06:34.694Z,16.80
2023-01-07T19:09:02.579Z,13.90
2023-01-07T19:11:31.799Z,13.93
2023-01-07T19:13:59.768Z,14.70
2023-01-07T19:16:29.058Z,14.75
2023-01-07T19:18:57.032Z,14.15
2023-01-07T19:21:26.686Z,15.13
2023-01-07T19:23:55.086Z,13.25
2023-01-07T19:26:23.737Z,16.50
2023-01-07T19:28:51.535Z,17.17
2023-01-07T19:31:19.375Z,15.77
2023-01-07T19:33:49.410Z,16.88
2023-01-07T19:36:17.921Z,19.73
2023-01-07T19:38:48.115Z,16.40
2023-01-07T19:41:18.171Z,16.23
2023-01-07T19:43:46.730Z,17.15
2023-01-07T19:46:15.973Z,15.38
2023-01-07T19:48:44.552Z,14.23
2023-01-07T19:51:14.469Z,16.25
2023-01-07T19:53:42.443Z,15.35
2023-01-07T19:56:11.987Z,10.93
2023-01-07T19:58:41.862Z,15.98
2023-01-07T20:01:12.251Z,14.77
2023-01-07T20:03:40.590Z,11.15
2023-01-07T20:06:10.787Z,12.40
2023-01-07T20:08:40.807Z,14.13
2023-01-07T20:11:09.213Z,13.85
2023-01-07T20:13:39.060Z,10.65
2023-01-07T20:16:09.241Z,10.95
2023-01-07T20:18:42.534Z,13.18
2023-01-07T20:21:11.904Z,10.23
2023-01-07T20:23:42.527Z,11.25
2023-01-07T20:26:12.490Z,11.35
2023-01-07T20:28:40.955Z,10.57
2023-01-07T20:31:13.141Z,11.57
2023-01-07T20:33:42.669Z,12.63
2023-01-07T20:36:14.075Z,9.60
2023-01-07T20:38:44.532Z,11.00
2023-01-07T20:41:16.561Z,11.18
2023-01-07T20:43:44.582Z,11.98
2023-01-07T20:46:12.609Z,9.60
2023-01-07T20:48:41.114Z,12.88
2023-01-07T20:51:10.274Z,13.02
2023-01-07T20:53:38.484Z,10.95
2023-01-07T20:56:09.194Z,15.05
2023-01-07T20:58:39.107Z,13.88
2023-01-07T21:01:09.192Z,16.27
2023-01-07T21:03:39.029Z,11.48
2023-01-07T21:06:09.564Z,10.35
2023-01-07T21:08:38.621Z,10.77
2023-01-07T21:11:11.619Z,12.27
2023-01-07T21:13:40.164Z,11.18
2023-01-07T21:16:09.275Z,13.30
2023-01-07T21:18:39.153Z,11.35
2023-01-07T21:21:11.418Z,10.23
2023-01-07T21:23:40.415Z,11.32
2023-01-07T21:26:10.674Z,11.25
2023-01-07T21:28:39.049Z,9.70
2023-01-07T21:31:09.180Z,11.88
2023-01-07T21:33:37.738Z,12.23
2023-01-07T21:36:10.069Z,13.88
2023-01-07T21:38:38.011Z,11.95
2023-01-07T21:41:14.241Z,12.52
2023-01-07T21:43:42.559Z,13.80
2023-01-07T21:46:11.008Z,12.15
2023-01-07T21:48:41.356Z,12.45
2023-01-07T21:51:11.694Z,16.45
2023-01-07T21:53:39.769Z,14.63
2023-01-07T21:56:09.987Z,13.88
2023-01-07T21:58:39.798Z,13.85
2023-01-07T22:01:08.567Z,12.73
2023-01-07T22:03:38.438Z,13.48
2023-01-07T22:06:09.027Z,12.63
2023-01-07T22:08:36.933Z,14.00
2023-01-07T22:11:05.236Z,8.00
2023-01-07T22:13:33.048Z,12.07
2023-01-07T22:16:05.704Z,12.55
2023-01-07T22:18:33.596Z,10.98
2023-01-07T22:21:01.449Z,10.40
2023-01-07T22:23:30.102Z,12.32
2023-01-07T22:26:03.859Z,14.18
2023-01-07T22:28:34.377Z,9.98
2023-01-07T22:31:08.685Z,10.70
2023-01-07T22:33:36.990Z,12.20
2023-01-07T22:36:05.446Z,11.65
2023-01-07T22:38:34.101Z,12.55
2023-01-07T22:41:04.548Z,12.05
2023-01-07T22:43:33.006Z,11.93
2023-01-07T22:46:06.255Z,12.50
2023-01-07T22:48:37.398Z,10.38
2023-01-07T22:51:09.541Z,12.77
2023-01-07T22:53:37.967Z,10.43
2023-01-07T22:56:06.577Z,12.20
2023-01-07T22:58:34.885Z,9.77
2023-01-07T23:01:15.356Z,9.68
2023-01-07T23:03:44.813Z,10.85
2023-01-07T23:06:14.507Z,12.18
2023-01-07T23:08:42.683Z,10.15
2023-01-07T23:11:11.512Z,11.88
2023-01-07T23:13:39.330Z,11.82
2023-01-07T23:16:07.925Z,13.43
2023-01-07T23:18:37.641Z,10.82
2023-01-07T23:21:06.382Z,9.93
2023-01-07T23:23:34.192Z,11.60
2023-01-07T23:26:02.406Z,11.45
2023-01-07T23:28:31.608Z,12.65
2023-01-07T23:31:01.728Z,12.10
2023-01-07T23:33:31.542Z,12.95
2023-01-07T23:36:04.768Z,9.15
2023-01-07T23:38:33.055Z,9.35
2023-01-07T23:41:01.508Z,10.93
2023-01-07T23:43:29.318Z,15.50
2023-01-07T23:45:58.857Z,14.43
2023-01-07T23:48:26.808Z,12.40
2023-01-07T23:50:55.311Z,11.90
2023-01-07T23:53:24.954Z,10.60
2023-01-07T23:55:53.551Z,11.20
2023-01-07T23:58:21.680Z,15.77
